sensor_id;sensor_type;location;lat;lon;timestamp;P1;durP1;ratioP1;P2;durP2;ratioP2
2542;SDS011;1116;51.502;7.414;2023-03-19T00:00:39;4.77;;;2.90;;
2542;SDS011;1116;51.502;7.414;2023-03-19T00:03:10;3.87;;;2.67;;
2542;SDS011;1116;51.502;7.414;2023-03-19T00:05:48;5.93;;;2.60;;
2542;SDS011;1116;51.502;7.414;2023-03-19T00:08:20;2.93;;;2.33;;
2542;SDS011;1116;51.502;7.414;2023-03-19T00:10:51;4.77;;;2.53;;
2542;SDS011;1116;51.502;7.414;2023-03-19T00:13:25;3.40;;;2.00;;
2542;SDS011;1116;51.502;7.414;2023-03-19T00:15:56;4.20;;;2.40;;
2542;SDS011;1116;51.502;7.414;2023-03-19T00:18:27;4.67;;;2.13;;
2542;SDS011;1116;51.502;7.414;2023-03-19T00:20:58;4.40;;;2.40;;
2542;SDS011;1116;51.502;7.414;2023-03-19T00:23:29;3.43;;;2.33;;
2542;SDS011;1116;51.502;7.414;2023-03-19T00:25:59;4.50;;;3.03;;
2542;SDS011;1116;51.502;7.414;2023-03-19T00:28:33;4.90;;;2.60;;
2542;SDS011;1116;51.502;7.414;2023-03-19T00:31:08;6.30;;;2.77;;
2542;SDS011;1116;51.502;7.414;2023-03-19T00:33:40;3.63;;;2.50;;
2542;SDS011;1116;51.502;7.414;2023-03-19T00:36:11;3.40;;;2.80;;
2542;SDS011;1116;51.502;7.414;2023-03-19T00:38:42;4.10;;;2.67;;
2542;SDS011;1116;51.502;7.414;2023-03-19T00:41:14;4.50;;;3.13;;
2542;SDS011;1116;51.502;7.414;2023-03-19T00:43:49;4.10;;;2.60;;
2542;SDS011;1116;51.502;7.414;2023-03-19T00:46:22;5.20;;;2.37;;
2542;SDS011;1116;51.502;7.414;2023-03-19T00:48:53;4.53;;;2.73;;
2542;SDS011;1116;51.502;7.414;2023-03-19T00:51:25;5.00;;;3.07;;
2542;SDS011;1116;51.502;7.414;2023-03-19T00:53:55;5.13;;;2.67;;
2542;SDS011;1116;51.502;7.414;2023-03-19T00:56:26;4.50;;;2.57;;
2542;SDS011;1116;51.502;7.414;2023-03-19T00:59:00;3.50;;;2.53;;
2542;SDS011;1116;51.502;7.414;2023-03-19T01:01:30;6.07;;;2.53;;
2542;SDS011;1116;51.502;7.414;2023-03-19T01:04:01;3.73;;;2.20;;
2542;SDS011;1116;51.502;7.414;2023-03-19T01:06:32;5.13;;;2.47;;
2542;SDS011;1116;51.502;7.414;2023-03-19T01:09:03;7.10;;;2.77;;
2542;SDS011;1116;51.502;7.414;2023-03-19T01:11:34;2.90;;;2.57;;
2542;SDS011;1116;51.502;7.414;2023-03-19T01:14:07;5.20;;;3.00;;
2542;SDS011;1116;51.502;7.414;2023-03-19T01:16:38;3.53;;;2.70;;
2542;SDS011;1116;51.502;7.414;2023-03-19T01:19:09;3.80;;;2.43;;
2542;SDS011;1116;51.502;7.414;2023-03-19T01:21:40;4.43;;;3.13;;
2542;SDS011;1116;51.502;7.414;2023-03-19T01:24:12;4.70;;;2.87;;
2542;SDS011;1116;51.502;7.414;2023-03-19T01:26:43;5.10;;;2.70;;
2542;SDS011;1116;51.502;7.414;2023-03-19T01:29:17;3.80;;;2.60;;
2542;SDS011;1116;51.502;7.414;2023-03-19T01:31:48;4.43;;;2.70;;
2542;SDS011;1116;51.502;7.414;2023-03-19T01:34:18;2.80;;;2.30;;
2542;SDS011;1116;51.502;7.414;2023-03-19T01:36:49;3.73;;;2.67;;
2542;SDS011;1116;51.502;7.414;2023-03-19T01:39:20;5.20;;;2.27;;
2542;SDS011;1116;51.502;7.414;2023-03-19T01:41:51;4.60;;;2.63;;
2542;SDS011;1116;51.502;7.414;2023-03-19T01:44:25;4.13;;;2.70;;
2542;SDS011;1116;51.502;7.414;2023-03-19T01:46:58;3.17;;;2.70;;
2542;SDS011;1116;51.502;7.414;2023-03-19T01:49:32;4.70;;;2.67;;
2542;SDS011;1116;51.502;7.414;2023-03-19T01:52:07;5.43;;;2.73;;
2542;SDS011;1116;51.502;7.414;2023-03-19T01:54:38;5.00;;;2.93;;
2542;SDS011;1116;51.502;7.414;2023-03-19T01:57:11;3.70;;;2.50;;
2542;SDS011;1116;51.502;7.414;2023-03-19T01:59:46;5.43;;;2.30;;
2542;SDS011;1116;51.502;7.414;2023-03-19T02:02:21;3.90;;;2.77;;
2542;SDS011;1116;51.502;7.414;2023-03-19T02:04:57;3.70;;;2.70;;
2542;SDS011;1116;51.502;7.414;2023-03-19T02:07:34;2.93;;;2.60;;
2542;SDS011;1116;51.502;7.414;2023-03-19T02:10:07;3.33;;;2.80;;
2542;SDS011;1116;51.502;7.414;2023-03-19T02:12:41;3.50;;;2.70;;
2542;SDS011;1116;51.502;7.414;2023-03-19T02:15:15;3.30;;;3.00;;
2542;SDS011;1116;51.502;7.414;2023-03-19T02:17:46;3.43;;;2.50;;
2542;SDS011;1116;51.502;7.414;2023-03-19T02:20:20;6.50;;;3.30;;
2542;SDS011;1116;51.502;7.414;2023-03-19T02:22:59;4.03;;;2.93;;
2542;SDS011;1116;51.502;7.414;2023-03-19T02:25:39;2.97;;;2.67;;
2542;SDS011;1116;51.502;7.414;2023-03-19T02:28:22;4.40;;;2.50;;
2542;SDS011;1116;51.502;7.414;2023-03-19T02:30:54;5.47;;;2.63;;
2542;SDS011;1116;51.502;7.414;2023-03-19T02:33:25;4.27;;;2.90;;
2542;SDS011;1116;51.502;7.414;2023-03-19T02:35:56;4.40;;;2.60;;
2542;SDS011;1116;51.502;7.414;2023-03-19T02:38:27;4.67;;;2.90;;
2542;SDS011;1116;51.502;7.414;2023-03-19T02:41:04;3.60;;;2.83;;
2542;SDS011;1116;51.502;7.414;2023-03-19T02:43:37;5.83;;;3.40;;
2542;SDS011;1116;51.502;7.414;2023-03-19T02:46:10;3.27;;;2.97;;
2542;SDS011;1116;51.502;7.414;2023-03-19T02:48:42;3.33;;;3.03;;
2542;SDS011;1116;51.502;7.414;2023-03-19T02:51:12;3.80;;;2.70;;
2542;SDS011;1116;51.502;7.414;2023-03-19T02:53:43;8.07;;;3.17;;
2542;SDS011;1116;51.502;7.414;2023-03-19T02:56:17;5.20;;;3.00;;
2542;SDS011;1116;51.502;7.414;2023-03-19T02:58:47;5.73;;;2.90;;
2542;SDS011;1116;51.502;7.414;2023-03-19T03:01:21;4.60;;;2.90;;
2542;SDS011;1116;51.502;7.414;2023-03-19T03:03:52;3.60;;;3.30;;
2542;SDS011;1116;51.502;7.414;2023-03-19T03:06:23;3.23;;;2.87;;
2542;SDS011;1116;51.502;7.414;2023-03-19T03:08:54;5.10;;;3.00;;
2542;SDS011;1116;51.502;7.414;2023-03-19T03:11:27;3.70;;;2.93;;
2542;SDS011;1116;51.502;7.414;2023-03-19T03:13:58;4.50;;;3.20;;
2542;SDS011;1116;51.502;7.414;2023-03-19T03:16:29;4.50;;;3.43;;
2542;SDS011;1116;51.502;7.414;2023-03-19T03:19:00;4.73;;;3.40;;
2542;SDS011;1116;51.502;7.414;2023-03-19T03:21:31;4.00;;;3.20;;
2542;SDS011;1116;51.502;7.414;2023-03-19T03:24:02;4.23;;;2.83;;
2542;SDS011;1116;51.502;7.414;2023-03-19T03:26:36;4.83;;;3.07;;
2542;SDS011;1116;51.502;7.414;2023-03-19T03:29:07;5.10;;;3.50;;
2542;SDS011;1116;51.502;7.414;2023-03-19T03:31:38;7.67;;;4.00;;
2542;SDS011;1116;51.502;7.414;2023-03-19T03:34:09;6.30;;;4.37;;
2542;SDS011;1116;51.502;7.414;2023-03-19T03:36:40;4.53;;;3.60;;
2542;SDS011;1116;51.502;7.414;2023-03-19T03:39:12;5.77;;;3.90;;
2542;SDS011;1116;51.502;7.414;2023-03-19T03:41:47;4.80;;;3.60;;
2542;SDS011;1116;51.502;7.414;2023-03-19T03:44:18;6.63;;;4.03;;
2542;SDS011;1116;51.502;7.414;2023-03-19T03:46:49;6.33;;;4.30;;
2542;SDS011;1116;51.502;7.414;2023-03-19T03:49:20;5.50;;;3.57;;
2542;SDS011;1116;51.502;7.414;2023-03-19T03:51:52;5.13;;;3.63;;
2542;SDS011;1116;51.502;7.414;2023-03-19T03:54:23;3.80;;;3.10;;
2542;SDS011;1116;51.502;7.414;2023-03-19T03:56:57;2.97;;;2.67;;
2542;SDS011;1116;51.502;7.414;2023-03-19T03:59:30;5.13;;;3.03;;
2542;SDS011;1116;51.502;7.414;2023-03-19T04:02:01;5.20;;;3.27;;
2542;SDS011;1116;51.502;7.414;2023-03-19T04:04:32;3.13;;;2.63;;
2542;SDS011;1116;51.502;7.414;2023-03-19T04:07:03;4.57;;;2.90;;
2542;SDS011;1116;51.502;7.414;2023-03-19T04:09:35;3.53;;;2.60;;
2542;SDS011;1116;51.502;7.414;2023-03-19T04:12:08;3.60;;;2.70;;
2542;SDS011;1116;51.502;7.414;2023-03-19T04:14:39;3.80;;;2.37;;
2542;SDS011;1116;51.502;7.414;2023-03-19T04:17:10;4.70;;;3.10;;
2542;SDS011;1116;51.502;7.414;2023-03-19T04:19:41;5.47;;;2.80;;
2542;SDS011;1116;51.502;7.414;2023-03-19T04:22:13;4.23;;;2.43;;
2542;SDS011;1116;51.502;7.414;2023-03-19T04:24:44;3.03;;;2.80;;
2542;SDS011;1116;51.502;7.414;2023-03-19T04:27:17;5.17;;;2.50;;
2542;SDS011;1116;51.502;7.414;2023-03-19T04:29:48;4.80;;;2.60;;
2542;SDS011;1116;51.502;7.414;2023-03-19T04:32:19;4.87;;;3.17;;
2542;SDS011;1116;51.502;7.414;2023-03-19T04:34:50;3.43;;;2.20;;
2542;SDS011;1116;51.502;7.414;2023-03-19T04:37:20;5.37;;;2.53;;
2542;SDS011;1116;51.502;7.414;2023-03-19T04:39:51;4.43;;;2.50;;
2542;SDS011;1116;51.502;7.414;2023-03-19T04:42:25;2.60;;;2.40;;
2542;SDS011;1116;51.502;7.414;2023-03-19T04:44:56;4.53;;;2.60;;
2542;SDS011;1116;51.502;7.414;2023-03-19T04:47:27;3.50;;;2.90;;
2542;SDS011;1116;51.502;7.414;2023-03-19T04:49:58;5.17;;;2.90;;
2542;SDS011;1116;51.502;7.414;2023-03-19T04:52:29;3.63;;;2.43;;
2542;SDS011;1116;51.502;7.414;2023-03-19T04:55:00;3.50;;;2.37;;
2542;SDS011;1116;51.502;7.414;2023-03-19T04:57:33;3.53;;;2.30;;
2542;SDS011;1116;51.502;7.414;2023-03-19T05:00:05;10.00;;;2.80;;
2542;SDS011;1116;51.502;7.414;2023-03-19T05:02:37;2.57;;;2.37;;
2542;SDS011;1116;51.502;7.414;2023-03-19T05:05:09;3.07;;;2.20;;
2542;SDS011;1116;51.502;7.414;2023-03-19T05:07:40;5.70;;;2.40;;
2542;SDS011;1116;51.502;7.414;2023-03-19T05:10:11;3.03;;;2.43;;
2542;SDS011;1116;51.502;7.414;2023-03-19T05:12:44;4.90;;;3.20;;
2542;SDS011;1116;51.502;7.414;2023-03-19T05:15:16;2.73;;;2.07;;
2542;SDS011;1116;51.502;7.414;2023-03-19T05:17:46;4.67;;;2.33;;
2542;SDS011;1116;51.502;7.414;2023-03-19T05:20:17;3.23;;;2.23;;
2542;SDS011;1116;51.502;7.414;2023-03-19T05:22:50;3.63;;;2.73;;
2542;SDS011;1116;51.502;7.414;2023-03-19T05:25:21;2.97;;;2.57;;
2542;SDS011;1116;51.502;7.414;2023-03-19T05:27:55;4.33;;;2.97;;
2542;SDS011;1116;51.502;7.414;2023-03-19T05:30:26;3.87;;;3.20;;
2542;SDS011;1116;51.502;7.414;2023-03-19T05:32:58;3.60;;;2.67;;
2542;SDS011;1116;51.502;7.414;2023-03-19T05:35:30;2.37;;;2.17;;
2542;SDS011;1116;51.502;7.414;2023-03-19T05:38:01;6.70;;;3.20;;
2542;SDS011;1116;51.502;7.414;2023-03-19T05:40:32;2.93;;;2.23;;
2542;SDS011;1116;51.502;7.414;2023-03-19T05:43:06;4.40;;;2.40;;
2542;SDS011;1116;51.502;7.414;2023-03-19T05:45:37;2.50;;;2.30;;
2542;SDS011;1116;51.502;7.414;2023-03-19T05:48:09;3.10;;;2.30;;
2542;SDS011;1116;51.502;7.414;2023-03-19T05:50:40;3.90;;;2.63;;
2542;SDS011;1116;51.502;7.414;2023-03-19T05:53:12;4.53;;;2.53;;
2542;SDS011;1116;51.502;7.414;2023-03-19T05:55:43;4.20;;;2.03;;
2542;SDS011;1116;51.502;7.414;2023-03-19T05:58:16;3.07;;;2.33;;
2542;SDS011;1116;51.502;7.414;2023-03-19T06:00:47;4.87;;;2.50;;
2542;SDS011;1116;51.502;7.414;2023-03-19T06:03:18;2.60;;;2.40;;
2542;SDS011;1116;51.502;7.414;2023-03-19T06:05:49;3.90;;;2.63;;
2542;SDS011;1116;51.502;7.414;2023-03-19T06:08:20;3.10;;;2.80;;
2542;SDS011;1116;51.502;7.414;2023-03-19T06:10:51;4.63;;;2.70;;
2542;SDS011;1116;51.502;7.414;2023-03-19T06:13:25;3.20;;;2.63;;
2542;SDS011;1116;51.502;7.414;2023-03-19T06:15:56;3.60;;;2.37;;
2542;SDS011;1116;51.502;7.414;2023-03-19T06:18:27;3.30;;;2.57;;
2542;SDS011;1116;51.502;7.414;2023-03-19T06:20:58;3.73;;;2.40;;
2542;SDS011;1116;51.502;7.414;2023-03-19T06:23:29;3.57;;;2.63;;
2542;SDS011;1116;51.502;7.414;2023-03-19T06:26:00;3.13;;;2.13;;
2542;SDS011;1116;51.502;7.414;2023-03-19T06:28:35;3.23;;;2.60;;
2542;SDS011;1116;51.502;7.414;2023-03-19T06:31:05;3.17;;;2.20;;
2542;SDS011;1116;51.502;7.414;2023-03-19T06:33:36;3.60;;;2.60;;
2542;SDS011;1116;51.502;7.414;2023-03-19T06:36:08;5.47;;;2.80;;
2542;SDS011;1116;51.502;7.414;2023-03-19T06:38:38;3.47;;;2.17;;
2542;SDS011;1116;51.502;7.414;2023-03-19T06:41:09;2.30;;;2.10;;
2542;SDS011;1116;51.502;7.414;2023-03-19T06:43:43;2.33;;;1.90;;
2542;SDS011;1116;51.502;7.414;2023-03-19T06:46:14;3.77;;;2.50;;
2542;SDS011;1116;51.502;7.414;2023-03-19T06:48:44;3.20;;;2.87;;
2542;SDS011;1116;51.502;7.414;2023-03-19T06:51:15;2.97;;;2.50;;
2542;SDS011;1116;51.502;7.414;2023-03-19T06:53:46;3.37;;;2.63;;
2542;SDS011;1116;51.502;7.414;2023-03-19T06:56:17;3.60;;;3.30;;
2542;SDS011;1116;51.502;7.414;2023-03-19T06:58:51;5.13;;;2.70;;
2542;SDS011;1116;51.502;7.414;2023-03-19T07:01:22;4.53;;;2.27;;
2542;SDS011;1116;51.502;7.414;2023-03-19T07:03:53;3.70;;;2.40;;
2542;SDS011;1116;51.502;7.414;2023-03-19T07:06:24;3.93;;;2.37;;
2542;SDS011;1116;51.502;7.414;2023-03-19T07:08:56;2.77;;;2.53;;
2542;SDS011;1116;51.502;7.414;2023-03-19T07:11:27;3.83;;;3.13;;
2542;SDS011;1116;51.502;7.414;2023-03-19T07:14:04;4.63;;;2.90;;
2542;SDS011;1116;51.502;7.414;2023-03-19T07:16:34;5.00;;;2.60;;
2542;SDS011;1116;51.502;7.414;2023-03-19T07:19:06;3.80;;;3.07;;
2542;SDS011;1116;51.502;7.414;2023-03-19T07:21:36;4.83;;;2.90;;
2542;SDS011;1116;51.502;7.414;2023-03-19T07:24:08;3.97;;;2.80;;
2542;SDS011;1116;51.502;7.414;2023-03-19T07:26:39;9.70;;;2.90;;
2542;SDS011;1116;51.502;7.414;2023-03-19T07:29:13;3.50;;;2.17;;
2542;SDS011;1116;51.502;7.414;2023-03-19T07:31:44;3.23;;;2.40;;
2542;SDS011;1116;51.502;7.414;2023-03-19T07:34:14;6.00;;;3.17;;
2542;SDS011;1116;51.502;7.414;2023-03-19T07:36:45;5.70;;;3.03;;
2542;SDS011;1116;51.502;7.414;2023-03-19T07:39:17;3.47;;;2.50;;
2542;SDS011;1116;51.502;7.414;2023-03-19T07:41:48;3.43;;;3.10;;
2542;SDS011;1116;51.502;7.414;2023-03-19T07:44:22;4.73;;;2.90;;
2542;SDS011;1116;51.502;7.414;2023-03-19T07:46:53;2.87;;;2.57;;
2542;SDS011;1116;51.502;7.414;2023-03-19T07:49:23;4.83;;;2.70;;
2542;SDS011;1116;51.502;7.414;2023-03-19T07:51:54;2.83;;;2.63;;
2542;SDS011;1116;51.502;7.414;2023-03-19T07:54:26;3.67;;;2.97;;
2542;SDS011;1116;51.502;7.414;2023-03-19T07:56:57;4.40;;;2.90;;
2542;SDS011;1116;51.502;7.414;2023-03-19T07:59:30;2.90;;;2.57;;
2542;SDS011;1116;51.502;7.414;2023-03-19T08:02:01;3.50;;;2.53;;
2542;SDS011;1116;51.502;7.414;2023-03-19T08:04:32;3.63;;;3.10;;
2542;SDS011;1116;51.502;7.414;2023-03-19T08:07:03;4.23;;;2.87;;
2542;SDS011;1116;51.502;7.414;2023-03-19T08:09:37;5.50;;;2.90;;
2542;SDS011;1116;51.502;7.414;2023-03-19T08:12:09;3.60;;;3.13;;
2542;SDS011;1116;51.502;7.414;2023-03-19T08:14:43;3.03;;;2.83;;
2542;SDS011;1116;51.502;7.414;2023-03-19T08:17:13;3.70;;;3.10;;
2542;SDS011;1116;51.502;7.414;2023-03-19T08:19:44;3.30;;;2.90;;
2542;SDS011;1116;51.502;7.414;2023-03-19T08:22:15;3.23;;;2.80;;
2542;SDS011;1116;51.502;7.414;2023-03-19T08:24:46;4.10;;;2.87;;
2542;SDS011;1116;51.502;7.414;2023-03-19T08:27:17;4.63;;;3.17;;
2542;SDS011;1116;51.502;7.414;2023-03-19T08:29:50;4.90;;;3.27;;
2542;SDS011;1116;51.502;7.414;2023-03-19T08:32:21;4.50;;;3.80;;
2542;SDS011;1116;51.502;7.414;2023-03-19T08:34:55;3.80;;;3.27;;
2542;SDS011;1116;51.502;7.414;2023-03-19T08:37:26;4.40;;;3.53;;
2542;SDS011;1116;51.502;7.414;2023-03-19T08:39:57;4.30;;;3.50;;
2542;SDS011;1116;51.502;7.414;2023-03-19T08:42:29;5.80;;;3.80;;
2542;SDS011;1116;51.502;7.414;2023-03-19T08:45:03;5.00;;;4.27;;
2542;SDS011;1116;51.502;7.414;2023-03-19T08:47:34;5.00;;;3.80;;
2542;SDS011;1116;51.502;7.414;2023-03-19T08:50:07;4.93;;;4.10;;
2542;SDS011;1116;51.502;7.414;2023-03-19T08:52:39;5.40;;;4.97;;
2542;SDS011;1116;51.502;7.414;2023-03-19T08:55:09;6.13;;;5.10;;
2542;SDS011;1116;51.502;7.414;2023-03-19T08:57:42;6.60;;;5.00;;
2542;SDS011;1116;51.502;7.414;2023-03-19T09:00:16;9.63;;;4.87;;
2542;SDS011;1116;51.502;7.414;2023-03-19T09:02:47;7.03;;;5.07;;
2542;SDS011;1116;51.502;7.414;2023-03-19T09:05:18;6.10;;;4.60;;
2542;SDS011;1116;51.502;7.414;2023-03-19T09:07:51;5.40;;;4.43;;
2542;SDS011;1116;51.502;7.414;2023-03-19T09:10:22;4.77;;;4.30;;
2542;SDS011;1116;51.502;7.414;2023-03-19T09:12:53;4.97;;;4.47;;
2542;SDS011;1116;51.502;7.414;2023-03-19T09:15:26;5.70;;;4.60;;
2542;SDS011;1116;51.502;7.414;2023-03-19T09:17:57;4.97;;;4.47;;
2542;SDS011;1116;51.502;7.414;2023-03-19T09:20:29;4.23;;;3.93;;
2542;SDS011;1116;51.502;7.414;2023-03-19T09:22:59;4.57;;;4.17;;
2542;SDS011;1116;51.502;7.414;2023-03-19T09:25:30;3.83;;;3.53;;
2542;SDS011;1116;51.502;7.414;2023-03-19T09:28:01;5.80;;;3.50;;
2542;SDS011;1116;51.502;7.414;2023-03-19T09:30:35;3.37;;;3.07;;
2542;SDS011;1116;51.502;7.414;2023-03-19T09:33:06;3.60;;;3.30;;
2542;SDS011;1116;51.502;7.414;2023-03-19T09:35:37;4.00;;;3.60;;
2542;SDS011;1116;51.502;7.414;2023-03-19T09:38:08;4.20;;;3.83;;
2542;SDS011;1116;51.502;7.414;2023-03-19T09:40:40;4.77;;;3.50;;
2542;SDS011;1116;51.502;7.414;2023-03-19T09:43:26;4.10;;;3.30;;
2542;SDS011;1116;51.502;7.414;2023-03-19T09:46:16;4.00;;;3.40;;
2542;SDS011;1116;51.502;7.414;2023-03-19T09:48:51;4.17;;;3.50;;
2542;SDS011;1116;51.502;7.414;2023-03-19T09:51:27;3.37;;;3.07;;
2542;SDS011;1116;51.502;7.414;2023-03-19T09:54:14;3.20;;;2.90;;
2542;SDS011;1116;51.502;7.414;2023-03-19T09:56:54;3.10;;;2.90;;
2542;SDS011;1116;51.502;7.414;2023-03-19T09:59:25;3.30;;;3.00;;
2542;SDS011;1116;51.502;7.414;2023-03-19T10:02:03;3.40;;;2.80;;
2542;SDS011;1116;51.502;7.414;2023-03-19T10:04:55;3.43;;;3.13;;
2542;SDS011;1116;51.502;7.414;2023-03-19T10:07:46;3.37;;;2.97;;
2542;SDS011;1116;51.502;7.414;2023-03-19T10:10:32;2.80;;;2.60;;
2542;SDS011;1116;51.502;7.414;2023-03-19T10:13:15;2.60;;;2.40;;
2542;SDS011;1116;51.502;7.414;2023-03-19T10:15:55;2.40;;;2.20;;
2542;SDS011;1116;51.502;7.414;2023-03-19T10:18:33;2.80;;;2.50;;
2542;SDS011;1116;51.502;7.414;2023-03-19T10:21:06;3.10;;;2.80;;
2542;SDS011;1116;51.502;7.414;2023-03-19T10:23:46;2.80;;;2.60;;
2542;SDS011;1116;51.502;7.414;2023-03-19T10:26:25;3.90;;;3.60;;
2542;SDS011;1116;51.502;7.414;2023-03-19T10:29:02;3.13;;;2.93;;
2542;SDS011;1116;51.502;7.414;2023-03-19T10:31:43;4.27;;;3.87;;
2542;SDS011;1116;51.502;7.414;2023-03-19T10:34:29;4.10;;;3.80;;
2542;SDS011;1116;51.502;7.414;2023-03-19T10:37:03;5.00;;;4.60;;
2542;SDS011;1116;51.502;7.414;2023-03-19T10:39:35;5.10;;;4.60;;
2542;SDS011;1116;51.502;7.414;2023-03-19T10:42:12;4.90;;;4.60;;
2542;SDS011;1116;51.502;7.414;2023-03-19T10:44:52;5.03;;;4.57;;
2542;SDS011;1116;51.502;7.414;2023-03-19T10:47:28;4.43;;;4.03;;
2542;SDS011;1116;51.502;7.414;2023-03-19T10:50:09;5.60;;;5.10;;
2542;SDS011;1116;51.502;7.414;2023-03-19T10:52:48;4.77;;;4.37;;
2542;SDS011;1116;51.502;7.414;2023-03-19T10:55:22;5.43;;;4.93;;
2542;SDS011;1116;51.502;7.414;2023-03-19T10:58:13;5.03;;;4.63;;
2542;SDS011;1116;51.502;7.414;2023-03-19T11:00:47;5.30;;;4.60;;
2542;SDS011;1116;51.502;7.414;2023-03-19T11:03:26;5.60;;;4.97;;
2542;SDS011;1116;51.502;7.414;2023-03-19T11:06:14;7.37;;;6.70;;
2542;SDS011;1116;51.502;7.414;2023-03-19T11:08:49;6.83;;;6.23;;
2542;SDS011;1116;51.502;7.414;2023-03-19T11:11:25;6.33;;;5.83;;
2542;SDS011;1116;51.502;7.414;2023-03-19T11:14:08;6.07;;;5.50;;
2542;SDS011;1116;51.502;7.414;2023-03-19T11:16:56;5.30;;;4.90;;
2542;SDS011;1116;51.502;7.414;2023-03-19T11:19:32;5.70;;;5.20;;
2542;SDS011;1116;51.502;7.414;2023-03-19T11:22:12;5.60;;;5.10;;
2542;SDS011;1116;51.502;7.414;2023-03-19T11:24:48;6.00;;;5.43;;
2542;SDS011;1116;51.502;7.414;2023-03-19T11:27:28;6.43;;;5.83;;
2542;SDS011;1116;51.502;7.414;2023-03-19T11:30:02;6.50;;;5.90;;
2542;SDS011;1116;51.502;7.414;2023-03-19T11:35:48;5.40;;;5.00;;
2542;SDS011;1116;51.502;7.414;2023-03-19T11:38:31;5.90;;;5.40;;
2542;SDS011;1116;51.502;7.414;2023-03-19T11:41:10;5.40;;;4.93;;
2542;SDS011;1116;51.502;7.414;2023-03-19T11:43:49;5.40;;;5.00;;
2542;SDS011;1116;51.502;7.414;2023-03-19T11:46:32;5.87;;;5.47;;
2542;SDS011;1116;51.502;7.414;2023-03-19T11:49:14;6.10;;;5.60;;
2542;SDS011;1116;51.502;7.414;2023-03-19T11:52:02;6.10;;;5.60;;
2542;SDS011;1116;51.502;7.414;2023-03-19T11:54:46;5.80;;;5.30;;
2542;SDS011;1116;51.502;7.414;2023-03-19T11:57:26;5.97;;;5.50;;
2542;SDS011;1116;51.502;7.414;2023-03-19T12:00:10;6.30;;;5.80;;
2542;SDS011;1116;51.502;7.414;2023-03-19T12:05:54;6.47;;;5.90;;
2542;SDS011;1116;51.502;7.414;2023-03-19T12:08:30;6.87;;;6.37;;
2542;SDS011;1116;51.502;7.414;2023-03-19T12:11:15;7.20;;;6.50;;
2542;SDS011;1116;51.502;7.414;2023-03-19T12:13:52;6.73;;;6.23;;
2542;SDS011;1116;51.502;7.414;2023-03-19T12:16:35;7.20;;;6.60;;
2542;SDS011;1116;51.502;7.414;2023-03-19T12:22:17;6.03;;;5.53;;
2542;SDS011;1116;51.502;7.414;2023-03-19T12:24:58;5.00;;;4.60;;
2542;SDS011;1116;51.502;7.414;2023-03-19T12:27:40;4.50;;;4.20;;
2542;SDS011;1116;51.502;7.414;2023-03-19T12:30:24;5.43;;;5.03;;
2542;SDS011;1116;51.502;7.414;2023-03-19T12:33:07;5.93;;;5.43;;
2542;SDS011;1116;51.502;7.414;2023-03-19T12:35:43;4.00;;;3.70;;
2542;SDS011;1116;51.502;7.414;2023-03-19T12:38:19;3.53;;;2.87;;
2542;SDS011;1116;51.502;7.414;2023-03-19T12:40:55;3.07;;;2.80;;
2542;SDS011;1116;51.502;7.414;2023-03-19T12:43:34;2.00;;;1.70;;
2542;SDS011;1116;51.502;7.414;2023-03-19T12:46:12;2.23;;;2.03;;
2542;SDS011;1116;51.502;7.414;2023-03-19T12:48:45;2.50;;;2.30;;
2542;SDS011;1116;51.502;7.414;2023-03-19T12:51:22;2.30;;;2.10;;
2542;SDS011;1116;51.502;7.414;2023-03-19T12:53:57;2.30;;;2.10;;
2542;SDS011;1116;51.502;7.414;2023-03-19T12:56:31;2.30;;;2.13;;
2542;SDS011;1116;51.502;7.414;2023-03-19T12:59:12;2.67;;;2.30;;
2542;SDS011;1116;51.502;7.414;2023-03-19T13:01:58;3.50;;;3.20;;
2542;SDS011;1116;51.502;7.414;2023-03-19T13:04:35;2.67;;;2.47;;
2542;SDS011;1116;51.502;7.414;2023-03-19T13:07:12;3.40;;;3.17;;
2542;SDS011;1116;51.502;7.414;2023-03-19T13:09:50;3.23;;;2.93;;
2542;SDS011;1116;51.502;7.414;2023-03-19T13:12:26;3.60;;;3.30;;
2542;SDS011;1116;51.502;7.414;2023-03-19T13:15:03;4.30;;;3.90;;
2542;SDS011;1116;51.502;7.414;2023-03-19T13:17:38;4.30;;;3.50;;
2542;SDS011;1116;51.502;7.414;2023-03-19T13:20:18;2.77;;;2.57;;
2542;SDS011;1116;51.502;7.414;2023-03-19T13:22:55;4.03;;;3.63;;
2542;SDS011;1116;51.502;7.414;2023-03-19T13:25:30;4.87;;;4.27;;
2542;SDS011;1116;51.502;7.414;2023-03-19T13:28:05;5.87;;;5.37;;
2542;SDS011;1116;51.502;7.414;2023-03-19T13:30:42;5.37;;;4.97;;
2542;SDS011;1116;51.502;7.414;2023-03-19T13:33:28;7.40;;;6.70;;
2542;SDS011;1116;51.502;7.414;2023-03-19T13:36:00;7.27;;;6.50;;
2542;SDS011;1116;51.502;7.414;2023-03-19T13:38:37;5.70;;;5.20;;
2542;SDS011;1116;51.502;7.414;2023-03-19T13:41:46;6.80;;;6.30;;
2542;SDS011;1116;51.502;7.414;2023-03-19T13:44:28;6.53;;;6.03;;
2542;SDS011;1116;51.502;7.414;2023-03-19T13:53:09;6.70;;;6.17;;
2542;SDS011;1116;51.502;7.414;2023-03-19T13:55:51;7.60;;;7.00;;
2542;SDS011;1116;51.502;7.414;2023-03-19T13:58:30;5.83;;;5.37;;
2542;SDS011;1116;51.502;7.414;2023-03-19T14:04:15;4.80;;;4.30;;
2542;SDS011;1116;51.502;7.414;2023-03-19T14:06:52;5.10;;;4.70;;
2542;SDS011;1116;51.502;7.414;2023-03-19T14:09:36;4.60;;;4.20;;
2542;SDS011;1116;51.502;7.414;2023-03-19T14:12:24;4.70;;;4.30;;
2542;SDS011;1116;51.502;7.414;2023-03-19T14:15:14;3.90;;;3.70;;
2542;SDS011;1116;51.502;7.414;2023-03-19T14:17:52;4.83;;;4.43;;
2542;SDS011;1116;51.502;7.414;2023-03-19T14:20:28;4.20;;;3.90;;
2542;SDS011;1116;51.502;7.414;2023-03-19T14:23:15;3.30;;;3.00;;
2542;SDS011;1116;51.502;7.414;2023-03-19T14:26:08;3.80;;;3.40;;
2542;SDS011;1116;51.502;7.414;2023-03-19T14:28:45;3.40;;;3.10;;
2542;SDS011;1116;51.502;7.414;2023-03-19T14:31:30;3.40;;;3.10;;
2542;SDS011;1116;51.502;7.414;2023-03-19T14:34:10;3.90;;;3.60;;
2542;SDS011;1116;51.502;7.414;2023-03-19T14:36:51;3.30;;;3.10;;
2542;SDS011;1116;51.502;7.414;2023-03-19T14:39:28;3.40;;;2.97;;
2542;SDS011;1116;51.502;7.414;2023-03-19T14:42:03;3.33;;;2.63;;
2542;SDS011;1116;51.502;7.414;2023-03-19T14:47:54;1.70;;;1.60;;
2542;SDS011;1116;51.502;7.414;2023-03-19T14:50:41;2.17;;;2.07;;
2542;SDS011;1116;51.502;7.414;2023-03-19T14:53:23;2.40;;;2.20;;
2542;SDS011;1116;51.502;7.414;2023-03-19T14:56:01;2.30;;;2.10;;
2542;SDS011;1116;51.502;7.414;2023-03-19T14:58:51;3.10;;;1.70;;
2542;SDS011;1116;51.502;7.414;2023-03-19T15:01:23;2.33;;;2.10;;
2542;SDS011;1116;51.502;7.414;2023-03-19T15:03:59;1.70;;;1.60;;
2542;SDS011;1116;51.502;7.414;2023-03-19T15:06:36;1.87;;;1.77;;
2542;SDS011;1116;51.502;7.414;2023-03-19T15:09:11;2.20;;;2.00;;
2542;SDS011;1116;51.502;7.414;2023-03-19T15:12:12;1.93;;;1.83;;
2542;SDS011;1116;51.502;7.414;2023-03-19T15:15:11;1.83;;;1.73;;
2542;SDS011;1116;51.502;7.414;2023-03-19T15:17:51;1.80;;;1.70;;
2542;SDS011;1116;51.502;7.414;2023-03-19T15:20:35;1.90;;;1.80;;
2542;SDS011;1116;51.502;7.414;2023-03-19T15:23:09;1.80;;;1.70;;
2542;SDS011;1116;51.502;7.414;2023-03-19T15:25:53;2.20;;;2.10;;
2542;SDS011;1116;51.502;7.414;2023-03-19T15:28:30;2.10;;;2.00;;
2542;SDS011;1116;51.502;7.414;2023-03-19T15:31:05;2.13;;;2.03;;
2542;SDS011;1116;51.502;7.414;2023-03-19T15:33:56;2.70;;;2.50;;
2542;SDS011;1116;51.502;7.414;2023-03-19T15:36:29;2.63;;;2.43;;
2542;SDS011;1116;51.502;7.414;2023-03-19T15:39:03;2.50;;;2.30;;
2542;SDS011;1116;51.502;7.414;2023-03-19T15:41:37;3.13;;;2.90;;
2542;SDS011;1116;51.502;7.414;2023-03-19T15:44:13;2.33;;;1.87;;
2542;SDS011;1116;51.502;7.414;2023-03-19T15:46:48;1.80;;;1.70;;
2542;SDS011;1116;51.502;7.414;2023-03-19T15:49:21;2.10;;;1.90;;
2542;SDS011;1116;51.502;7.414;2023-03-19T15:51:58;2.40;;;2.20;;
2542;SDS011;1116;51.502;7.414;2023-03-19T15:54:33;4.27;;;2.60;;
2542;SDS011;1116;51.502;7.414;2023-03-19T15:57:04;2.50;;;2.20;;
2542;SDS011;1116;51.502;7.414;2023-03-19T15:59:36;2.50;;;2.30;;
2542;SDS011;1116;51.502;7.414;2023-03-19T16:02:12;2.67;;;2.30;;
2542;SDS011;1116;51.502;7.414;2023-03-19T16:04:48;2.30;;;2.10;;
2542;SDS011;1116;51.502;7.414;2023-03-19T16:07:42;3.10;;;2.00;;
2542;SDS011;1116;51.502;7.414;2023-03-19T16:13:20;1.90;;;1.80;;
2542;SDS011;1116;51.502;7.414;2023-03-19T16:15:58;2.50;;;2.10;;
2542;SDS011;1116;51.502;7.414;2023-03-19T16:18:39;2.30;;;2.20;;
2542;SDS011;1116;51.502;7.414;2023-03-19T16:21:13;1.90;;;1.80;;
2542;SDS011;1116;51.502;7.414;2023-03-19T16:23:53;2.60;;;1.93;;
2542;SDS011;1116;51.502;7.414;2023-03-19T16:26:28;2.87;;;2.50;;